createdAt,value
2019-02-26T00:00:23.815Z,32.80
2019-02-26T00:02:50.616Z,32.70
2019-02-26T00:05:17.338Z,32.70
2019-02-26T00:07:40.963Z,32.80
2019-02-26T00:10:07.902Z,33.00
2019-02-26T00:12:35.582Z,32.80
2019-02-26T00:15:02.500Z,33.00
2019-02-26T00:17:26.482Z,32.90
2019-02-26T00:19:52.626Z,33.00
2019-02-26T00:22:18.775Z,33.00
2019-02-26T00:24:46.563Z,32.80
2019-02-26T00:27:11.118Z,33.00
2019-02-26T00:29:37.301Z,32.90
2019-02-26T00:32:03.449Z,33.00
2019-02-26T00:34:30.520Z,33.00
2019-02-26T00:36:57.329Z,33.10
2019-02-26T00:39:23.217Z,33.10
2019-02-26T00:41:51.273Z,33.10
2019-02-26T00:44:14.432Z,33.10
2019-02-26T00:46:40.586Z,33.00
2019-02-26T00:49:07.625Z,33.10
2019-02-26T00:51:32.940Z,33.10
2019-02-26T00:53:59.875Z,33.00
2019-02-26T00:56:27.377Z,33.00
2019-02-26T00:58:51.471Z,33.10
2019-02-26T01:01:19.399Z,33.10
2019-02-26T01:03:45.252Z,33.00
2019-02-26T01:06:10.030Z,33.10
2019-02-26T01:08:37.941Z,33.10
2019-02-26T01:11:03.908Z,33.10
2019-02-26T01:13:30.071Z,33.10
2019-02-26T01:15:55.598Z,33.10
2019-02-26T01:18:22.873Z,33.10
2019-02-26T01:20:50.293Z,33.10
2019-02-26T01:23:14.165Z,33.00
2019-02-26T01:25:40.332Z,33.00
2019-02-26T01:28:06.484Z,33.10
2019-02-26T01:30:35.692Z,33.30
2019-02-26T01:33:00.531Z,33.20
2019-02-26T01:35:26.185Z,33.30
2019-02-26T01:37:54.065Z,33.20
2019-02-26T01:40:20.607Z,33.20
2019-02-26T01:42:47.298Z,33.20
2019-02-26T01:45:10.675Z,33.20
2019-02-26T01:47:36.829Z,33.10
2019-02-26T01:50:04.165Z,33.20
2019-02-26T01:52:29.168Z,33.30
2019-02-26T01:54:57.907Z,33.20
2019-02-26T01:57:22.285Z,33.10
2019-02-26T01:59:50.254Z,33.20
2019-02-26T02:02:17.276Z,33.10
2019-02-26T02:04:41.616Z,33.20
2019-02-26T02:07:07.828Z,33.20
2019-02-26T02:09:33.990Z,33.10
2019-02-26T02:12:02.041Z,33.10
2019-02-26T02:14:26.353Z,33.10
2019-02-26T02:16:52.522Z,33.10
2019-02-26T02:19:22.239Z,33.10
2019-02-26T02:21:46.900Z,33.10
2019-02-26T02:24:12.872Z,33.10
2019-02-26T02:26:37.308Z,33.20
2019-02-26T02:29:03.464Z,33.20
2019-02-26T02:31:31.248Z,33.20
2019-02-26T02:33:55.985Z,33.20
2019-02-26T02:36:23.636Z,33.20
2019-02-26T02:38:48.351Z,33.20
2019-02-26T02:41:14.520Z,33.20
2019-02-26T02:43:40.660Z,33.30
2019-02-26T02:46:06.813Z,33.30
2019-02-26T02:48:32.958Z,33.30
2019-02-26T02:50:59.643Z,33.30
2019-02-26T02:53:27.407Z,33.20
2019-02-26T02:55:51.671Z,33.40
2019-02-26T02:58:20.124Z,33.30
2019-02-26T03:00:46.117Z,33.10
2019-02-26T03:03:10.873Z,33.10
2019-02-26T03:05:40.394Z,33.10
2019-02-26T03:08:03.243Z,33.20
2019-02-26T03:10:33.485Z,33.30
2019-02-26T03:12:57.641Z,33.30
2019-02-26T03:15:24.013Z,33.30
2019-02-26T03:17:47.981Z,33.20
2019-02-26T03:20:14.134Z,33.30
2019-02-26T03:22:43.130Z,33.20
2019-02-26T03:25:06.526Z,33.20
2019-02-26T03:27:34.266Z,33.20
2019-02-26T03:30:01.736Z,33.40
2019-02-26T03:32:25.091Z,33.40
2019-02-26T03:34:51.263Z,33.30
2019-02-26T03:37:17.413Z,33.40
2019-02-26T03:39:43.659Z,33.40
2019-02-26T03:42:10.570Z,33.40
2019-02-26T03:44:36.044Z,33.40
2019-02-26T03:47:02.975Z,33.40
2019-02-26T03:49:29.149Z,33.40
2019-02-26T03:51:59.079Z,33.40
2019-02-26T03:54:21.500Z,33.40
2019-02-26T03:56:47.661Z,33.40
2019-02-26T03:59:13.826Z,33.40
2019-02-26T04:01:40.746Z,33.50
2019-02-26T04:04:07.697Z,33.50
2019-02-26T04:06:35.560Z,33.40
2019-02-26T04:08:59.324Z,33.40
2019-02-26T04:11:27.676Z,33.40
2019-02-26T04:13:54.073Z,33.50
2019-02-26T04:16:17.893Z,33.40
2019-02-26T04:18:44.069Z,33.40
2019-02-26T04:21:12.037Z,33.50
2019-02-26T04:23:38.832Z,33.60
2019-02-26T04:26:03.353Z,33.40
2019-02-26T04:28:33.020Z,33.40
2019-02-26T04:30:55.718Z,33.50
2019-02-26T04:33:21.864Z,33.50
2019-02-26T04:35:50.033Z,33.40
2019-02-26T04:38:14.219Z,33.30
2019-02-26T04:40:40.970Z,33.30
2019-02-26T04:43:07.332Z,33.40
2019-02-26T04:45:32.860Z,33.30
2019-02-26T04:48:00.717Z,33.30
2019-02-26T04:50:28.703Z,33.20
2019-02-26T04:52:51.396Z,33.20
2019-02-26T04:55:17.554Z,33.40
2019-02-26T04:57:46.488Z,33.40
2019-02-26T05:00:10.545Z,33.40
2019-02-26T05:02:36.852Z,33.40
2019-02-26T05:05:03.009Z,33.40
2019-02-26T05:07:29.165Z,33.40
2019-02-26T05:09:56.859Z,33.30
2019-02-26T05:12:25.056Z,33.40
2019-02-26T05:14:47.723Z,33.30
2019-02-26T05:17:14.659Z,33.90
2019-02-26T05:19:43.490Z,33.20
2019-02-26T05:22:07.132Z,33.30
2019-02-26T05:24:33.213Z,33.40
2019-02-26T05:26:59.369Z,33.50
2019-02-26T05:29:25.529Z,33.40
2019-02-26T05:31:51.672Z,33.40
2019-02-26T05:34:20.154Z,33.40
2019-02-26T05:36:46.253Z,33.50
2019-02-26T05:39:10.236Z,33.40
2019-02-26T05:41:36.393Z,33.50
2019-02-26T05:44:06.591Z,33.60
2019-02-26T05:46:29.493Z,34.30
2019-02-26T05:48:54.926Z,33.60
2019-02-26T05:51:21.081Z,33.50
2019-02-26T05:53:47.252Z,33.60
2019-02-26T05:56:14.598Z,33.60
2019-02-26T05:58:41.890Z,33.50
2019-02-26T06:01:05.817Z,33.50
2019-02-26T06:03:32.016Z,33.50
2019-02-26T06:06:00.325Z,33.50
2019-02-26T06:08:26.745Z,33.50
2019-02-26T06:10:50.598Z,33.60
2019-02-26T06:13:16.769Z,33.50
2019-02-26T06:15:43.685Z,33.70
2019-02-26T06:18:09.855Z,33.60
2019-02-26T06:20:36.625Z,33.60
2019-02-26T06:23:02.212Z,33.60
2019-02-26T06:25:28.373Z,33.50
2019-02-26T06:27:54.526Z,33.60
2019-02-26T06:30:20.673Z,33.60
2019-02-26T06:32:46.821Z,33.60
2019-02-26T06:35:13.711Z,33.60
2019-02-26T06:37:40.263Z,33.60
2019-02-26T06:40:07.370Z,33.60
2019-02-26T06:42:33.273Z,33.60
2019-02-26T06:44:57.786Z,33.60
2019-02-26T06:47:26.058Z,33.60
2019-02-26T06:49:52.574Z,33.60
2019-02-26T06:52:18.033Z,33.50
2019-02-26T06:54:47.716Z,33.60
2019-02-26T06:57:09.533Z,33.50
2019-02-26T06:59:36.857Z,33.60
2019-02-26T07:02:01.912Z,33.40
2019-02-26T07:04:30.061Z,33.50
2019-02-26T07:06:55.360Z,33.50
2019-02-26T07:09:20.561Z,33.50
2019-02-26T07:11:46.707Z,33.40
2019-02-26T07:14:12.853Z,33.50
2019-02-26T07:16:40.366Z,33.40
2019-02-26T07:19:06.627Z,33.50
2019-02-26T07:21:31.402Z,33.30
2019-02-26T07:23:58.825Z,33.50
2019-02-26T07:26:23.757Z,33.40
2019-02-26T07:28:51.054Z,33.50
2019-02-26T07:31:16.107Z,33.50
2019-02-26T07:33:42.275Z,33.40
2019-02-26T07:36:09.188Z,34.20
2019-02-26T07:38:41.214Z,33.50
2019-02-26T07:41:03.631Z,33.40
2019-02-26T07:43:27.732Z,33.50
2019-02-26T07:45:53.887Z,33.50
2019-02-26T07:48:21.351Z,33.60
2019-02-26T07:50:48.354Z,33.60
2019-02-26T07:53:14.362Z,33.60
2019-02-26T07:55:41.950Z,33.60
2019-02-26T07:58:06.222Z,33.70
2019-02-26T08:00:32.894Z,34.30
2019-02-26T08:02:59.665Z,33.70
2019-02-26T08:05:26.041Z,33.70
2019-02-26T08:07:52.095Z,33.70
2019-02-26T08:10:16.936Z,33.80
2019-02-26T08:12:42.705Z,33.80
2019-02-26T08:15:10.384Z,33.80
2019-02-26T08:17:34.956Z,33.90
2019-02-26T08:20:04.264Z,33.90
2019-02-26T08:22:30.158Z,33.90
2019-02-26T08:24:55.528Z,33.90
2019-02-26T08:27:20.492Z,33.80
2019-02-26T08:29:46.641Z,33.90
2019-02-26T08:32:15.864Z,34.00
2019-02-26T08:34:39.755Z,34.00
2019-02-26T08:37:05.209Z,33.90
2019-02-26T08:39:31.366Z,34.00
2019-02-26T08:41:57.533Z,34.00
2019-02-26T08:44:23.684Z,34.00
2019-02-26T08:46:49.869Z,34.00
2019-02-26T08:49:17.907Z,34.00
2019-02-26T08:51:42.236Z,34.10
2019-02-26T08:54:08.389Z,34.10
2019-02-26T08:56:36.262Z,34.20
2019-02-26T08:59:01.772Z,34.10
2019-02-26T09:01:26.944Z,34.10
2019-02-26T09:03:53.791Z,34.20
2019-02-26T09:06:19.301Z,34.20
2019-02-26T09:08:45.451Z,34.20
2019-02-26T09:11:13.461Z,34.30
2019-02-26T09:13:38.878Z,34.30
2019-02-26T09:16:06.125Z,34.20
2019-02-26T09:18:31.537Z,34.20
2019-02-26T09:20:56.409Z,34.20
2019-02-26T09:23:23.544Z,34.20
2019-02-26T09:25:51.533Z,34.30
2019-02-26T09:28:15.012Z,34.30
2019-02-26T09:30:41.158Z,34.30
2019-02-26T09:33:09.065Z,34.30
2019-02-26T09:35:33.541Z,34.30
2019-02-26T09:38:00.995Z,34.30
2019-02-26T09:40:26.564Z,34.30
2019-02-26T09:42:54.590Z,34.40
2019-02-26T09:45:20.407Z,34.40
2019-02-26T09:47:44.933Z,34.50
2019-02-26T09:50:12.780Z,34.50
2019-02-26T09:52:36.873Z,34.60
2019-02-26T09:55:03.785Z,34.60
2019-02-26T09:57:29.952Z,34.60
2019-02-26T09:59:58.193Z,34.70
2019-02-26T10:02:24.121Z,34.70
2019-02-26T10:04:49.537Z,34.80
2019-02-26T10:07:14.805Z,34.70
2019-02-26T10:09:45.771Z,34.80
2019-02-26T10:12:09.774Z,34.80
2019-02-26T10:14:33.930Z,34.90
2019-02-26T10:16:59.615Z,34.90
2019-02-26T10:19:25.780Z,34.90
2019-02-26T10:21:53.237Z,34.90
2019-02-26T10:24:22.972Z,35.00
2019-02-26T10:26:45.608Z,35.00
2019-02-26T10:29:11.751Z,35.00
2019-02-26T10:31:40.437Z,35.80
2019-02-26T10:34:07.889Z,35.20
2019-02-26T10:36:32.547Z,35.20
2019-02-26T10:38:57.796Z,35.20
2019-02-26T10:41:22.682Z,35.20
2019-02-26T10:43:48.839Z,35.30
2019-02-26T10:46:15.763Z,35.30
2019-02-26T10:48:43.422Z,35.30
2019-02-26T10:51:08.112Z,35.40
2019-02-26T10:53:34.265Z,35.40
2019-02-26T10:56:00.435Z,35.50
2019-02-26T10:58:26.603Z,35.50
2019-02-26T11:00:55.602Z,35.50
2019-02-26T11:03:20.215Z,35.50
2019-02-26T11:05:48.760Z,35.60
2019-02-26T11:08:12.203Z,35.60
2019-02-26T11:10:41.397Z,35.70
2019-02-26T11:13:04.574Z,35.60
2019-02-26T11:15:33.395Z,35.70
2019-02-26T11:17:56.931Z,35.80
2019-02-26T11:20:27.030Z,35.80
2019-02-26T11:22:50.259Z,35.80
2019-02-26T11:25:17.941Z,35.80
2019-02-26T11:27:43.472Z,35.90
2019-02-26T11:30:07.942Z,35.90
2019-02-26T11:32:37.902Z,35.90
2019-02-26T11:35:02.449Z,35.90
2019-02-26T11:37:27.139Z,36.80
2019-02-26T11:39:54.990Z,36.00
2019-02-26T11:42:21.246Z,36.10
2019-02-26T11:44:45.076Z,36.10
2019-02-26T11:47:13.508Z,36.20
2019-02-26T11:49:39.354Z,36.20
2019-02-26T11:52:04.344Z,36.10
2019-02-26T11:54:32.657Z,36.30
2019-02-26T11:56:56.012Z,36.20
2019-02-26T11:59:22.176Z,36.40
2019-02-26T12:01:48.323Z,36.30
2019-02-26T12:04:16.994Z,36.40
2019-02-26T12:06:40.660Z,36.40
2019-02-26T12:09:08.732Z,36.50
2019-02-26T12:11:33.020Z,36.50
2019-02-26T12:13:59.174Z,36.50
2019-02-26T12:16:28.396Z,36.50
2019-02-26T12:18:58.858Z,36.60
2019-02-26T12:21:25.187Z,36.60
2019-02-26T12:23:49.686Z,36.60
2019-02-26T12:26:18.650Z,36.70
2019-02-26T12:28:42.457Z,36.70
2019-02-26T12:31:10.963Z,36.80
2019-02-26T12:33:34.825Z,36.70
2019-02-26T12:36:02.597Z,36.90
2019-02-26T12:38:27.940Z,36.90
2019-02-26T12:40:54.091Z,36.90
2019-02-26T12:43:20.265Z,36.90
2019-02-26T12:45:46.429Z,37.00
2019-02-26T12:48:15.660Z,37.00
2019-02-26T12:50:40.476Z,37.80
2019-02-26T12:53:05.733Z,37.10
2019-02-26T12:55:34.937Z,37.10
2019-02-26T12:57:59.456Z,37.10
2019-02-26T13:00:24.329Z,37.10
2019-02-26T13:02:52.301Z,37.10
2019-02-26T13:05:19.335Z,37.10
2019-02-26T13:07:42.892Z,37.20
2019-02-26T13:10:09.041Z,37.20
2019-02-26T13:12:35.329Z,37.20
2019-02-26T13:15:04.904Z,37.30
2019-02-26T13:17:29.464Z,37.20
2019-02-26T13:19:58.968Z,37.30
2019-02-26T13:22:20.438Z,37.30
2019-02-26T13:24:46.260Z,37.30
2019-02-26T13:27:12.412Z,37.40
2019-02-26T13:29:42.412Z,37.40
2019-02-26T13:32:07.837Z,37.40
2019-02-26T13:34:30.980Z,37.40
2019-02-26T13:36:57.174Z,37.50
2019-02-26T13:39:29.975Z,37.40
2019-02-26T13:41:54.380Z,37.50
2019-02-26T13:44:15.717Z,37.50
2019-02-26T13:46:41.875Z,37.50
2019-02-26T13:49:08.022Z,37.50
2019-02-26T13:51:34.176Z,37.50
2019-02-26T13:54:00.329Z,37.60
2019-02-26T13:56:26.483Z,37.60
2019-02-26T13:58:52.645Z,37.70
2019-02-26T14:01:18.827Z,37.80
2019-02-26T14:03:44.989Z,37.70
2019-02-26T14:06:11.184Z,37.70
2019-02-26T14:08:37.512Z,37.60
2019-02-26T14:11:03.716Z,37.50
2019-02-26T14:13:29.872Z,37.70
2019-02-26T14:15:56.042Z,37.60
2019-02-26T14:18:22.200Z,37.50
2019-02-26T14:20:48.411Z,37.60
2019-02-26T14:23:14.567Z,37.70
2019-02-26T14:25:40.762Z,37.70
2019-02-26T14:28:06.921Z,37.70
2019-02-26T14:30:33.077Z,37.70
2019-02-26T14:32:59.240Z,37.60
2019-02-26T14:35:25.392Z,37.70
2019-02-26T14:37:51.544Z,37.70
2019-02-26T14:40:17.746Z,37.70
2019-02-26T14:42:43.901Z,37.70
2019-02-26T14:45:10.074Z,37.80
2019-02-26T14:47:36.243Z,37.80
2019-02-26T14:50:02.414Z,37.80
2019-02-26T14:52:28.569Z,37.90
2019-02-26T14:54:54.765Z,37.90
2019-02-26T14:57:20.926Z,37.90
2019-02-26T14:59:47.121Z,38.00
2019-02-26T15:02:14.053Z,38.00
2019-02-26T15:04:40.207Z,37.90
2019-02-26T15:07:06.373Z,38.00
2019-02-26T15:09:33.334Z,38.00
2019-02-26T15:11:59.485Z,38.00
2019-02-26T15:14:25.666Z,38.00
2019-02-26T15:16:51.812Z,38.10
2019-02-26T15:19:17.978Z,38.80
2019-02-26T15:21:44.151Z,38.10
2019-02-26T15:24:11.125Z,38.20
2019-02-26T15:26:37.293Z,38.20
2019-02-26T15:29:03.463Z,38.20
2019-02-26T15:31:29.614Z,38.20
2019-02-26T15:33:55.771Z,38.20
2019-02-26T15:36:21.933Z,38.30
2019-02-26T15:38:48.893Z,38.20
2019-02-26T15:41:15.103Z,38.20
2019-02-26T15:43:41.280Z,38.30
2019-02-26T15:46:07.435Z,38.40
2019-02-26T15:48:36.359Z,38.40
2019-02-26T15:51:00.640Z,38.40
2019-02-26T15:53:26.865Z,38.40
2019-02-26T15:55:53.012Z,38.40
2019-02-26T15:58:19.928Z,38.40
2019-02-26T16:00:46.085Z,38.40
2019-02-26T16:03:12.236Z,38.40
2019-02-26T16:05:38.421Z,38.40
2019-02-26T16:08:04.607Z,38.50
2019-02-26T16:10:30.767Z,38.70
2019-02-26T16:12:56.924Z,38.70
2019-02-26T16:15:23.081Z,38.60
2019-02-26T16:17:49.663Z,38.60
2019-02-26T16:20:15.434Z,38.70
2019-02-26T16:22:41.634Z,38.90
2019-02-26T16:25:08.301Z,38.80
2019-02-26T16:27:37.742Z,38.70
2019-02-26T16:30:00.300Z,38.70
2019-02-26T16:32:26.364Z,38.70
2019-02-26T16:34:52.993Z,38.90
2019-02-26T16:37:18.720Z,38.90
2019-02-26T16:39:44.897Z,38.90
2019-02-26T16:42:11.772Z,38.90
2019-02-26T16:44:38.407Z,38.80
2019-02-26T16:47:05.264Z,38.90
2019-02-26T16:49:30.777Z,38.80
2019-02-26T16:51:56.970Z,38.90
2019-02-26T16:54:23.981Z,39.00
2019-02-26T16:56:54.336Z,38.90
2019-02-26T16:59:17.274Z,38.90
2019-02-26T17:01:43.438Z,39.00
2019-02-26T17:04:10.535Z,39.00
2019-02-26T17:06:36.689Z,39.00
2019-02-26T17:09:02.872Z,39.00
2019-02-26T17:11:29.037Z,39.00
2019-02-26T17:13:55.192Z,39.10
2019-02-26T17:16:21.356Z,39.00
2019-02-26T17:18:47.513Z,39.10
2019-02-26T17:21:13.667Z,39.10
2019-02-26T17:23:39.821Z,39.00
2019-02-26T17:26:10.478Z,39.10
2019-02-26T17:28:36.640Z,39.10
2019-02-26T17:31:02.809Z,39.10
2019-02-26T17:33:28.969Z,39.10
2019-02-26T17:35:55.143Z,39.10
2019-02-26T17:38:21.341Z,39.00
2019-02-26T17:40:47.502Z,39.10
2019-02-26T17:43:13.652Z,39.10
2019-02-26T17:45:39.800Z,39.10
2019-02-26T17:48:06.724Z,39.10
2019-02-26T17:50:32.877Z,39.10
2019-02-26T17:52:59.797Z,39.10
2019-02-26T17:55:26.053Z,39.10
2019-02-26T17:57:52.216Z,39.10
2019-02-26T18:00:18.365Z,39.10
2019-02-26T18:02:44.510Z,39.10
2019-02-26T18:05:10.764Z,39.10
2019-02-26T18:07:38.596Z,39.10
2019-02-26T18:10:03.048Z,39.00
2019-02-26T18:12:29.197Z,39.00
2019-02-26T18:14:56.133Z,39.00
2019-02-26T18:17:21.549Z,38.90
2019-02-26T18:19:49.590Z,39.00
2019-02-26T18:22:13.894Z,39.00
2019-02-26T18:24:40.066Z,38.90
2019-02-26T18:27:06.225Z,38.90
2019-02-26T18:29:32.370Z,38.90
2019-02-26T18:31:58.522Z,38.90
2019-02-26T18:34:24.685Z,38.80
2019-02-26T18:36:50.914Z,38.80
2019-02-26T18:39:17.105Z,38.80
2019-02-26T18:41:50.589Z,38.80
2019-02-26T18:44:10.352Z,38.80
2019-02-26T18:46:36.508Z,38.70
2019-02-26T18:49:02.701Z,38.70
2019-02-26T18:51:28.850Z,38.70
2019-02-26T18:53:55.004Z,38.60
2019-02-26T18:56:21.149Z,38.60
2019-02-26T18:58:49.086Z,38.60
2019-02-26T19:01:13.503Z,38.50
2019-02-26T19:03:41.614Z,38.50
2019-02-26T19:06:05.878Z,38.50
2019-02-26T19:08:32.033Z,38.40
2019-02-26T19:10:58.181Z,38.40
2019-02-26T19:13:24.337Z,38.40
2019-02-26T19:15:50.484Z,38.40
2019-02-26T19:18:16.651Z,38.20
2019-02-26T19:20:44.271Z,38.30
2019-02-26T19:23:09.023Z,38.30
2019-02-26T19:25:35.183Z,38.20
2019-02-26T19:28:03.618Z,38.20
2019-02-26T19:30:29.780Z,38.10
2019-02-26T19:32:55.962Z,38.10
2019-02-26T19:35:22.126Z,38.10
2019-02-26T19:37:48.290Z,38.10
2019-02-26T19:40:14.441Z,38.10
2019-02-26T19:42:42.558Z,38.00
2019-02-26T19:45:08.672Z,38.10
2019-02-26T19:47:32.984Z,38.00
2019-02-26T19:49:59.136Z,37.90
2019-02-26T19:52:25.440Z,37.80
2019-02-26T19:54:51.491Z,37.80
2019-02-26T19:57:18.437Z,37.80
2019-02-26T19:59:46.884Z,37.70
2019-02-26T20:02:10.773Z,37.70
2019-02-26T20:04:38.664Z,37.70
2019-02-26T20:07:03.137Z,37.60
2019-02-26T20:09:29.301Z,37.60
2019-02-26T20:11:56.258Z,37.50
2019-02-26T20:14:22.418Z,37.50
2019-02-26T20:16:48.566Z,37.50
2019-02-26T20:19:14.713Z,37.40
2019-02-26T20:21:40.865Z,37.30
2019-02-26T20:24:07.022Z,37.30
2019-02-26T20:26:33.221Z,37.20
2019-02-26T20:28:59.365Z,37.20
2019-02-26T20:31:25.509Z,37.20
2019-02-26T20:33:51.659Z,37.20
2019-02-26T20:36:18.328Z,37.30
2019-02-26T20:38:44.013Z,37.20
2019-02-26T20:41:10.926Z,37.10
2019-02-26T20:43:37.400Z,37.10
2019-02-26T20:46:03.270Z,37.10
2019-02-26T20:48:29.418Z,37.10
2019-02-26T20:50:56.551Z,37.10
2019-02-26T20:53:21.763Z,37.10
2019-02-26T20:55:52.534Z,37.10
2019-02-26T20:58:14.106Z,37.00
2019-02-26T21:00:42.475Z,36.90
2019-02-26T21:03:07.993Z,36.80
2019-02-26T21:05:32.664Z,36.80
2019-02-26T21:07:59.020Z,36.80
2019-02-26T21:10:25.013Z,36.80
2019-02-26T21:12:51.165Z,36.80
2019-02-26T21:15:17.318Z,36.80
2019-02-26T21:17:43.472Z,36.80
2019-02-26T21:20:09.634Z,36.70
2019-02-26T21:22:35.789Z,36.80
2019-02-26T21:25:01.946Z,36.70
2019-02-26T21:27:28.862Z,36.50
2019-02-26T21:29:55.014Z,36.50
2019-02-26T21:32:25.383Z,36.70
2019-02-26T21:34:47.994Z,36.60
2019-02-26T21:37:13.544Z,36.70
2019-02-26T21:39:43.552Z,36.60
2019-02-26T21:42:05.919Z,36.60
2019-02-26T21:44:32.240Z,36.60
2019-02-26T21:46:58.391Z,36.60
2019-02-26T21:49:24.548Z,36.50
2019-02-26T21:51:50.699Z,36.30
2019-02-26T21:54:16.854Z,36.40
2019-02-26T21:56:43.020Z,36.40
2019-02-26T21:59:09.174Z,36.40
2019-02-26T22:01:35.737Z,36.40
2019-02-26T22:04:01.884Z,36.30
2019-02-26T22:06:28.056Z,36.20
2019-02-26T22:08:54.904Z,36.20
2019-02-26T22:11:20.440Z,36.20
2019-02-26T22:13:46.590Z,36.30
2019-02-26T22:16:14.903Z,36.30
2019-02-26T22:18:38.944Z,36.20
2019-02-26T22:21:05.103Z,36.10
2019-02-26T22:23:34.072Z,36.20
2019-02-26T22:25:57.436Z,36.00
2019-02-26T22:28:23.585Z,36.00
2019-02-26T22:30:55.692Z,36.00
2019-02-26T22:33:17.841Z,36.00
2019-02-26T22:35:43.997Z,35.90
2019-02-26T22:38:12.583Z,35.90
2019-02-26T22:40:36.360Z,35.90
2019-02-26T22:43:02.531Z,35.90
2019-02-26T22:45:28.698Z,35.80
2019-02-26T22:47:55.628Z,35.70
2019-02-26T22:50:21.777Z,35.70
2019-02-26T22:52:47.969Z,35.80
2019-02-26T22:55:16.587Z,36.50
2019-02-26T22:57:40.333Z,35.70
2019-02-26T23:00:06.491Z,35.70
2019-02-26T23:02:35.275Z,35.70
2019-02-26T23:04:59.602Z,35.70
2019-02-26T23:07:25.771Z,35.70
2019-02-26T23:09:52.507Z,35.60
2019-02-26T23:12:18.123Z,35.70
2019-02-26T23:14:44.276Z,35.70
2019-02-26T23:17:11.188Z,35.60
2019-02-26T23:19:39.366Z,35.60
2019-02-26T23:22:03.954Z,35.60
2019-02-26T23:24:30.122Z,35.70
2019-02-26T23:26:56.328Z,35.60
2019-02-26T23:29:22.558Z,35.60
2019-02-26T23:31:48.711Z,35.60
2019-02-26T23:34:15.963Z,35.50
2019-02-26T23:36:42.121Z,36.00
2019-02-26T23:39:08.269Z,35.60
2019-02-26T23:41:34.416Z,35.50
2019-02-26T23:44:01.336Z,35.50
2019-02-26T23:46:29.523Z,35.50
2019-02-26T23:48:53.697Z,35.40
2019-02-26T23:51:21.053Z,35.40
2019-02-26T23:53:46.041Z,35.30
2019-02-26T23:56:12.203Z,35.40
2019-02-26T23:58:39.119Z,35.40
